Map

Track Data

SID SEASON NUMBER BASIN SUBBASIN NAME ISO_TIME NATURE LAT LON WMO_WIND WMO_PRES WMO_AGENCY TRACK_TYPE DIST2LAND LANDFALL IFLAG USA_AGENCY USA_ATCF_ID USA_LAT USA_LON USA_RECORD USA_STATUS USA_WIND USA_PRES USA_SSHS USA_R34_NE USA_R34_SE USA_R34_SW USA_R34_NW USA_R50_NE USA_R50_SE USA_R50_SW USA_R50_NW USA_R64_NE USA_R64_SE USA_R64_SW USA_R64_NW USA_POCI USA_ROCI USA_RMW USA_EYE TOKYO_LAT TOKYO_LON TOKYO_GRADE TOKYO_WIND TOKYO_PRES TOKYO_R50_DIR TOKYO_R50_LONG TOKYO_R50_SHORT TOKYO_R30_DIR TOKYO_R30_LONG TOKYO_R30_SHORT TOKYO_LAND CMA_LAT CMA_LON CMA_CAT CMA_WIND CMA_PRES HKO_LAT HKO_LON HKO_CAT HKO_WIND HKO_PRES NEWDELHI_LAT NEWDELHI_LON NEWDELHI_GRADE NEWDELHI_WIND NEWDELHI_PRES NEWDELHI_CI NEWDELHI_DP NEWDELHI_POCI REUNION_LAT REUNION_LON REUNION_TYPE REUNION_WIND REUNION_PRES REUNION_TNUM REUNION_CI REUNION_RMW REUNION_R34_NE REUNION_R34_SE REUNION_R34_SW REUNION_R34_NW REUNION_R50_NE REUNION_R50_SE REUNION_R50_SW REUNION_R50_NW REUNION_R64_NE REUNION_R64_SE REUNION_R64_SW REUNION_R64_NW BOM_LAT BOM_LON BOM_TYPE BOM_WIND BOM_PRES BOM_TNUM BOM_CI BOM_RMW BOM_R34_NE BOM_R34_SE BOM_R34_SW BOM_R34_NW BOM_R50_NE BOM_R50_SE BOM_R50_SW BOM_R50_NW BOM_R64_NE BOM_R64_SE BOM_R64_SW BOM_R64_NW BOM_ROCI BOM_POCI BOM_EYE BOM_POS_METHOD BOM_PRES_METHOD NADI_LAT NADI_LON NADI_CAT NADI_WIND NADI_PRES WELLINGTON_LAT WELLINGTON_LON WELLINGTON_WIND WELLINGTON_PRES DS824_LAT DS824_LON DS824_STAGE DS824_WIND DS824_PRES TD9636_LAT TD9636_LON TD9636_STAGE TD9636_WIND TD9636_PRES TD9635_LAT TD9635_LON TD9635_WIND TD9635_PRES TD9635_ROCI NEUMANN_LAT NEUMANN_LON NEUMANN_CLASS NEUMANN_WIND NEUMANN_PRES MLC_LAT MLC_LON MLC_CLASS MLC_WIND MLC_PRES USA_GUST BOM_GUST BOM_GUST_PER REUNION_GUST REUNION_GUST_PER USA_SEAHGT USA_SEARAD_NE USA_SEARAD_SE USA_SEARAD_SW USA_SEARAD_NW STORM_SPEED STORM_DIR
1999318N17278 1999 98 NA CS LENNY 1999-11-13 18:00:00 TS 16.7000 -81.6000 30 1003 hurdat_atl main 248 247 O_____________ hurdat_atl AL161999 16.7000 -81.6000 TD 30 1003 -1 5 115
1999318N17278 1999 98 NA CS LENNY 1999-11-13 21:00:00 TS 16.5925 -81.3599 main 255 255 P_____________ AL161999 16.5925 -81.3599 TD 30 1003 -1 5 113
1999318N17278 1999 98 NA CS LENNY 1999-11-14 00:00:00 TS 16.5000 -81.1000 30 1003 hurdat_atl main 272 272 O_____________ hurdat_atl AL161999 16.5000 -81.1000 TD 30 1003 -1 6 107
1999318N17278 1999 98 NA CS LENNY 1999-11-14 03:00:00 TS 16.4350 -80.8075 main 291 291 P_____________ AL161999 16.4350 -80.8075 TD 30 1002 -1 6 100
1999318N17278 1999 98 NA CS LENNY 1999-11-14 06:00:00 TS 16.4000 -80.5000 30 1002 hurdat_atl main 300 277 O_____________ hurdat_atl AL161999 16.4000 -80.5000 TD 30 1002 -1 6 93
1999318N17278 1999 98 NA CS LENNY 1999-11-14 09:00:00 TS 16.4000 -80.2001 main 277 256 P_____________ AL161999 16.4000 -80.2001 TD 35 1001 0 6 90
1999318N17278 1999 98 NA CS LENNY 1999-11-14 12:00:00 TS 16.4000 -79.9000 40 1000 hurdat_atl main 256 238 O_____________ hurdat_atl AL161999 16.4000 -79.9000 TS 40 1000 0 6 93
1999318N17278 1999 98 NA CS LENNY 1999-11-14 15:00:00 TS 16.3724 -79.6076 main 238 232 P_____________ AL161999 16.3724 -79.6076 TS 47 996 0 6 100
1999318N17278 1999 98 NA CS LENNY 1999-11-14 18:00:00 TS 16.3000 -79.3000 55 992 hurdat_atl main 233 228 O_____________ hurdat_atl AL161999 16.3000 -79.3000 TS 55 992 0 6 108
1999318N17278 1999 98 NA CS LENNY 1999-11-14 21:00:00 TS 16.1799 -78.9726 main 232 227 P_____________ AL161999 16.1799 -78.9726 TS 62 990 0 7 114
1999318N17278 1999 98 NA CS LENNY 1999-11-15 00:00:00 TS 16.0000 -78.6000 70 988 hurdat_atl main 233 229 O_____________ hurdat_atl AL161999 16.0000 -78.6000 HU 70 988 1 9 119
1999318N17278 1999 98 NA CS LENNY 1999-11-15 03:00:00 TS 15.7573 -78.1950 main 237 237 P_____________ AL161999 15.7573 -78.1950 HU 72 982 1 10 120
1999318N17278 1999 98 NA CS LENNY 1999-11-15 06:00:00 TS 15.5000 -77.7000 75 977 hurdat_atl main 251 249 O_____________ hurdat_atl AL161999 15.5000 -77.7000 HU 75 977 1 12 114
1999318N17278 1999 98 NA CS LENNY 1999-11-15 09:00:00 TS 15.2848 -77.1025 main 268 268 P_____________ AL161999 15.2848 -77.1025 HU 80 974 1 13 108
1999318N17278 1999 98 NA CS LENNY 1999-11-15 12:00:00 TS 15.1000 -76.4000 85 971 hurdat_atl main 303 303 O_____________ hurdat_atl AL161999 15.1000 -76.4000 HU 85 971 2 15 105
1999318N17278 1999 98 NA CS LENNY 1999-11-15 15:00:00 TS 14.8976 -75.6071 main 341 341 P_____________ AL161999 14.8976 -75.6071 HU 80 977 1 16 101
1999318N17278 1999 98 NA CS LENNY 1999-11-15 18:00:00 TS 14.8000 -74.8000 75 983 hurdat_atl main 370 347 O_____________ hurdat_atl AL161999 14.8000 -74.8000 HU 75 983 1 15 89
1999318N17278 1999 98 NA CS LENNY 1999-11-15 21:00:00 TS 14.9271 -74.0856 main 347 325 P_____________ AL161999 14.9271 -74.0856 HU 75 982 1 14 77
1999318N17278 1999 98 NA CS LENNY 1999-11-16 00:00:00 TS 15.1000 -73.4000 75 982 hurdat_atl main 327 312 O_____________ hurdat_atl AL161999 15.1000 -73.4000 HU 75 982 1 13 82
1999318N17278 1999 98 NA CS LENNY 1999-11-16 03:00:00 TS 15.1222 -72.7073 main 312 287 P_____________ AL161999 15.1222 -72.7073 HU 75 978 1 14 90
1999318N17278 1999 98 NA CS LENNY 1999-11-16 06:00:00 TS 15.1000 -72.0000 75 974 hurdat_atl main 287 279 O_____________ hurdat_atl AL161999 15.1000 -72.0000 HU 75 974 1 14 92
1999318N17278 1999 98 NA CS LENNY 1999-11-16 09:00:00 TS 15.0698 -71.2572 main 280 280 P_____________ AL161999 15.0698 -71.2572 HU 80 972 1 14 90
1999318N17278 1999 98 NA CS LENNY 1999-11-16 12:00:00 TS 15.1000 -70.5000 85 971 hurdat_atl main 295 295 O_____________ hurdat_atl AL161999 15.1000 -70.5000 HU 85 971 2 15 82
1999318N17278 1999 98 NA CS LENNY 1999-11-16 15:00:00 TS 15.2698 -69.7427 main 314 302 P_____________ AL161999 15.2698 -69.7427 HU 85 969 2 15 75
1999318N17278 1999 98 NA CS LENNY 1999-11-16 18:00:00 TS 15.5000 -69.0000 85 967 hurdat_atl main 302 272 O_____________ hurdat_atl AL161999 15.5000 -69.0000 HU 85 967 2 15 73
1999318N17278 1999 98 NA CS LENNY 1999-11-16 21:00:00 TS 15.6924 -68.2699 main 272 227 P_____________ AL161999 15.6924 -68.2699 HU 92 963 2 14 73
1999318N17278 1999 98 NA CS LENNY 1999-11-17 00:00:00 TS 15.9000 -67.6000 100 959 hurdat_atl main 227 201 O_____________ hurdat_atl AL161999 15.9000 -67.6000 HU 100 959 3 13 69
1999318N17278 1999 98 NA CS LENNY 1999-11-17 03:00:00 TS 16.1497 -67.0200 main 201 170 P_____________ AL161999 16.1497 -67.0200 HU 102 955 3 12 65
1999318N17278 1999 98 NA CS LENNY 1999-11-17 06:00:00 TS 16.4000 -66.5000 105 952 hurdat_atl main 170 145 O_____________ hurdat_atl AL161999 16.4000 -66.5000 HU 105 952 3 11 66
1999318N17278 1999 98 NA CS LENNY 1999-11-17 09:00:00 TS 16.5925 -65.9698 main 147 135 P_____________ AL161999 16.5925 -65.9698 HU 110 949 3 10 67
1999318N17278 1999 98 NA CS LENNY 1999-11-17 12:00:00 TS 16.8000 -65.5000 115 946 hurdat_atl main 138 119 O_____________ hurdat_atl AL161999 16.8000 -65.5000 HU 115 946 4 10 57
1999318N17278 1999 98 NA CS LENNY 1999-11-17 15:00:00 TS 17.1148 -65.1201 main 125 115 P_____________ AL161999 17.1148 -65.1201 HU 125 939 4 9 48
1999318N17278 1999 98 NA CS LENNY 1999-11-17 18:00:00 TS 17.4000 -64.8000 135 933 hurdat_atl main 123 123 O_____________ hurdat_atl AL161999 17.4000 -64.8000 L HU 135 933 4 7 56
1999318N17278 1999 98 NA CS LENNY 1999-11-17 21:00:00 TS 17.5300 -64.4698 main 140 140 P_____________ AL161999 17.5300 -64.4698 HU 132 936 4 6 71
1999318N17278 1999 98 NA CS LENNY 1999-11-18 00:00:00 TS 17.6000 -64.2000 130 940 hurdat_atl main 162 162 O_____________ hurdat_atl AL161999 17.6000 -64.2000 HU 130 940 4 5 67
1999318N17278 1999 98 NA CS LENNY 1999-11-18 03:00:00 TS 17.7074 -64.0275 main 178 175 P_____________ AL161999 17.7074 -64.0275 HU 127 942 4 3 55
1999318N17278 1999 98 NA CS LENNY 1999-11-18 06:00:00 TS 17.8000 -63.9000 125 944 hurdat_atl main 185 185 O_____________ hurdat_atl AL161999 17.8000 -63.9000 HU 125 944 4 3 60
1999318N17278 1999 98 NA CS LENNY 1999-11-18 09:00:00 TS 17.8575 -63.7500 main 203 203 P_____________ AL161999 17.8575 -63.7500 HU 122 948 4 3 71
1999318N17278 1999 98 NA CS LENNY 1999-11-18 12:00:00 TS 17.9000 -63.6000 120 953 hurdat_atl main 214 214 O_____________ hurdat_atl AL161999 17.9000 -63.6000 HU 120 953 4 3 72
1999318N17278 1999 98 NA CS LENNY 1999-11-18 15:00:00 TS 17.9500 -63.4425 main 233 233 P_____________ AL161999 17.9500 -63.4425 HU 115 959 4 3 71
1999318N17278 1999 98 NA CS LENNY 1999-11-18 18:00:00 TS 18.0000 -63.3000 110 966 hurdat_atl main 244 244 O_____________ hurdat_atl AL161999 18.0000 -63.3000 L HU 110 966 3 3 64
1999318N17278 1999 98 NA CS LENNY 1999-11-18 21:00:00 TS 18.0650 -63.1925 main 253 253 P_____________ AL161999 18.0650 -63.1925 HU 97 970 3 2 62
1999318N17278 1999 98 NA CS LENNY 1999-11-19 00:00:00 TS 18.1000 -63.1000 85 975 hurdat_atl main 264 264 O_____________ hurdat_atl AL161999 18.1000 -63.1000 L HU 85 975 2 2 90
1999318N17278 1999 98 NA CS LENNY 1999-11-19 03:00:00 TS 18.0650 -62.9925 main 274 274 P_____________ AL161999 18.0650 -62.9925 HU 80 977 1 2 118
1999318N17278 1999 98 NA CS LENNY 1999-11-19 06:00:00 TS 18.0000 -62.9000 75 979 hurdat_atl main 286 286 O_____________ hurdat_atl AL161999 18.0000 -62.9000 L HU 75 979 1 2 128
1999318N17278 1999 98 NA CS LENNY 1999-11-19 09:00:00 TS 17.9650 -62.8576 main 286 286 P_____________ AL161999 17.9650 -62.8576 HU 72 982 1 1 137
1999318N17278 1999 98 NA CS LENNY 1999-11-19 12:00:00 TS 17.9000 -62.8000 70 986 hurdat_atl main 297 297 O_____________ hurdat_atl AL161999 17.9000 -62.8000 HU 70 986 1 3 142
1999318N17278 1999 98 NA CS LENNY 1999-11-19 15:00:00 TS 17.7649 -62.6950 main 309 309 P_____________ AL161999 17.7649 -62.6950 HU 65 990 1 4 137
1999318N17278 1999 98 NA CS LENNY 1999-11-19 18:00:00 TS 17.6000 -62.5000 60 994 hurdat_atl main 334 334 O_____________ hurdat_atl AL161999 17.6000 -62.5000 TS 60 994 0 6 123
1999318N17278 1999 98 NA CS LENNY 1999-11-19 21:00:00 TS 17.4501 -62.1800 main 368 368 P_____________ AL161999 17.4501 -62.1800 TS 57 994 0 7 114
1999318N17278 1999 98 NA CS LENNY 1999-11-20 00:00:00 TS 17.3000 -61.8000 55 994 hurdat_atl main 414 414 O_____________ hurdat_atl AL161999 17.3000 -61.8000 L TS 55 994 0 8 112
1999318N17278 1999 98 NA CS LENNY 1999-11-20 03:00:00 TS 17.1649 -61.4501 main 448 448 P_____________ AL161999 17.1649 -61.4501 TS 55 994 0 7 114
1999318N17278 1999 98 NA CS LENNY 1999-11-20 06:00:00 TS 17.0000 -61.1000 55 995 hurdat_atl main 495 495 O_____________ hurdat_atl AL161999 17.0000 -61.1000 TS 55 995 0 8 120
1999318N17278 1999 98 NA CS LENNY 1999-11-20 09:00:00 TS 16.7725 -60.7425 main 542 542 P_____________ AL161999 16.7725 -60.7425 TS 52 995 0 8 127
1999318N17278 1999 98 NA NA LENNY 1999-11-20 12:00:00 TS 16.5000 -60.4000 50 996 hurdat_atl main 583 583 O_____________ hurdat_atl AL161999 16.5000 -60.4000 TS 50 996 0 9 135
1999318N17278 1999 98 NA NA LENNY 1999-11-20 15:00:00 TS 16.1549 -60.1074 main 623 594 P_____________ AL161999 16.1549 -60.1074 TS 47 997 0 8 136
1999318N17278 1999 98 NA NA LENNY 1999-11-20 18:00:00 TS 15.9000 -59.8000 45 998 hurdat_atl main 596 596 O_____________ hurdat_atl AL161999 15.9000 -59.8000 TS 45 998 0 7 114
1999318N17278 1999 98 NA NA LENNY 1999-11-20 21:00:00 TS 15.8675 -59.4225 main 607 607 P_____________ AL161999 15.8675 -59.4225 TS 42 998 0 8 83
1999318N17278 1999 98 NA NA LENNY 1999-11-21 00:00:00 TS 16.0000 -59.0000 40 998 hurdat_atl main 631 631 O_____________ hurdat_atl AL161999 16.0000 -59.0000 TS 40 998 0 9 68
1999318N17278 1999 98 NA NA LENNY 1999-11-21 03:00:00 TS 16.2049 -58.5649 main 668 668 P_____________ AL161999 16.2049 -58.5649 TS 35 998 0 10 60
1999318N17278 1999 98 NA NA LENNY 1999-11-21 06:00:00 TS 16.5000 -58.1000 30 998 hurdat_atl main 721 721 O_____________ hurdat_atl AL161999 16.5000 -58.1000 TD 30 998 -1 11 57
1999318N17278 1999 98 NA NA LENNY 1999-11-21 09:00:00 TS 16.8277 -57.5627 main 775 775 P_____________ AL161999 16.8277 -57.5627 TD 30 998 -1 12 54
1999318N17278 1999 98 NA NA LENNY 1999-11-21 12:00:00 TS 17.2000 -57.1000 30 999 hurdat_atl main 840 840 O_____________ hurdat_atl AL161999 17.2000 -57.1000 TD 30 999 -1 10 40
1999318N17278 1999 98 NA NA LENNY 1999-11-21 15:00:00 TS 17.6222 -56.8697 main 889 889 P_____________ AL161999 17.6222 -56.8697 TD 27 999 -1 9 26
1999318N17278 1999 98 NA NA LENNY 1999-11-21 18:00:00 TS 18.0000 -56.7000 25 1000 hurdat_atl main 939 939 O_____________ hurdat_atl AL161999 18.0000 -56.7000 TD 25 1000 -1 8 35
1999318N17278 1999 98 NA NA LENNY 1999-11-21 21:00:00 TS 18.2526 -56.4000 main 971 971 P_____________ AL161999 18.2526 -56.4000 TD 25 1000 -1 7 55
1999318N17278 1999 98 NA NA LENNY 1999-11-22 00:00:00 TS 18.4000 -56.1000 25 1001 hurdat_atl main 1002 1002 O_____________ hurdat_atl AL161999 18.4000 -56.1000 TD 25 1001 -1 5 65
1999318N17278 1999 98 NA NA LENNY 1999-11-22 03:00:00 TS 18.4799 -55.8849 main 1023 1023 P_____________ AL161999 18.4799 -55.8849 TD 25 1001 -1 4 75
1999318N17278 1999 98 NA NA LENNY 1999-11-22 06:00:00 TS 18.5000 -55.7000 25 1002 hurdat_atl main 1042 1042 O_____________ hurdat_atl AL161999 18.5000 -55.7000 TD 25 1002 -1 4 86
1999318N17278 1999 98 NA NA LENNY 1999-11-22 09:00:00 TS 18.5074 -55.5150 main 1054 1054 P_____________ AL161999 18.5074 -55.5150 TD 25 1003 -1 4 90
1999318N17278 1999 98 NA NA LENNY 1999-11-22 12:00:00 TS 18.5000 -55.3000 25 1004 hurdat_atl main 1066 1066 O_____________ hurdat_atl AL161999 18.5000 -55.3000 TD 25 1004 -1 5 91
1999318N17278 1999 98 NA NA LENNY 1999-11-22 15:00:00 TS 18.4999 -55.0375 main 1085 1085 P_____________ AL161999 18.4999 -55.0375 TD 22 1004 -1 6 90
1999318N17278 1999 98 NA NA LENNY 1999-11-22 18:00:00 TS 18.5000 -54.7000 20 1005 hurdat_atl main 1105 1105 O_____________ hurdat_atl AL161999 18.5000 -54.7000 TD 20 1005 -1 7 90
1999318N17278 1999 98 NA NA LENNY 1999-11-22 21:00:00 TS 18.5000 -54.2800 main 1132 1132 P_____________ AL161999 18.5000 -54.2800 TD 20 1005 -1 9 90
1999318N17278 1999 98 NA NA LENNY 1999-11-23 00:00:00 TS 18.5000 -53.8000 20 1006 hurdat_atl main 1167 1167 O_____________ hurdat_atl AL161999 18.5000 -53.8000 TD 20 1006 -1 9 90
1999318N17278 1999 98 NA NA LENNY 1999-11-23 03:00:00 TS 18.5002 -53.3025 main 1203 1203 P_____________ AL161999 18.5002 -53.3025 TD 20 1006 -1 9 90
1999318N17278 1999 98 NA NA LENNY 1999-11-23 06:00:00 TS 18.5000 -52.8000 20 1006 hurdat_atl main 1241 O_____________ hurdat_atl AL161999 18.5000 -52.8000 TD 20 1006 -1 10 90

About IBTrACS Database

This database is a web-friendly format of International Best Track Archive for Climate Stewardship (IBTrACS), a global best track data archive curated by NOAA dating back to 1842.

Updated: 2021-10-21